sensor_id;sensor_type;location;lat;lon;timestamp;pressure;altitude;pressure_sealevel;temperature;humidity
33265;BME280;31404;53.974;-1.086;2023-06-04T00:00:40;102606.40;;;14.13;67.18
33265;BME280;31404;53.974;-1.086;2023-06-04T00:05:39;102604.97;;;14.60;65.97
33265;BME280;31404;53.974;-1.086;2023-06-04T00:10:38;102609.28;;;15.12;64.13
33265;BME280;31404;53.974;-1.086;2023-06-04T00:15:38;102613.75;;;13.62;67.71
33265;BME280;31404;53.974;-1.086;2023-06-04T00:20:39;102607.45;;;13.85;66.41
33265;BME280;31404;53.974;-1.086;2023-06-04T00:25:39;102605.77;;;12.92;69.49
33265;BME280;31404;53.974;-1.086;2023-06-04T00:30:39;102609.24;;;12.70;70.65
33265;BME280;31404;53.974;-1.086;2023-06-04T00:35:39;102609.20;;;13.61;68.78
33265;BME280;31404;53.974;-1.086;2023-06-04T00:40:39;102607.50;;;12.53;68.81
33265;BME280;31404;53.974;-1.086;2023-06-04T00:45:40;102605.54;;;12.60;68.26
33265;BME280;31404;53.974;-1.086;2023-06-04T00:50:38;102608.18;;;13.50;67.35
33265;BME280;31404;53.974;-1.086;2023-06-04T00:55:38;102609.34;;;12.50;69.78
33265;BME280;31404;53.974;-1.086;2023-06-04T01:00:39;102605.03;;;12.74;69.90
33265;BME280;31404;53.974;-1.086;2023-06-04T01:05:43;102603.48;;;13.06;68.59
33265;BME280;31404;53.974;-1.086;2023-06-04T01:15:38;102615.90;;;11.56;74.59
33265;BME280;31404;53.974;-1.086;2023-06-04T01:20:42;102613.87;;;12.00;73.85
33265;BME280;31404;53.974;-1.086;2023-06-04T01:25:40;102610.26;;;12.62;71.28
33265;BME280;31404;53.974;-1.086;2023-06-04T01:30:41;102621.08;;;11.65;72.13
33265;BME280;31404;53.974;-1.086;2023-06-04T01:35:38;102622.14;;;11.94;71.96
33265;BME280;31404;53.974;-1.086;2023-06-04T01:40:38;102620.39;;;11.79;72.03
33265;BME280;31404;53.974;-1.086;2023-06-04T01:45:38;102612.54;;;13.05;69.26
33265;BME280;31404;53.974;-1.086;2023-06-04T01:50:40;102621.15;;;11.35;73.00
33265;BME280;31404;53.974;-1.086;2023-06-04T01:55:39;102615.06;;;12.20;71.18
33265;BME280;31404;53.974;-1.086;2023-06-04T02:00:39;102619.35;;;11.82;71.78
33265;BME280;31404;53.974;-1.086;2023-06-04T02:05:39;102617.58;;;12.13;70.96
33265;BME280;31404;53.974;-1.086;2023-06-04T02:10:39;102621.45;;;11.45;73.44
33265;BME280;31404;53.974;-1.086;2023-06-04T02:15:40;102617.69;;;12.64;69.63
33265;BME280;31404;53.974;-1.086;2023-06-04T02:20:39;102625.15;;;11.55;71.83
33265;BME280;31404;53.974;-1.086;2023-06-04T02:25:38;102611.12;;;12.33;70.91
33265;BME280;31404;53.974;-1.086;2023-06-04T02:30:39;102619.79;;;12.25;71.04
33265;BME280;31404;53.974;-1.086;2023-06-04T02:35:39;102627.30;;;10.38;76.74
33265;BME280;31404;53.974;-1.086;2023-06-04T02:40:39;102620.54;;;13.17;68.81
33265;BME280;31404;53.974;-1.086;2023-06-04T02:45:39;102617.52;;;13.56;66.61
33265;BME280;31404;53.974;-1.086;2023-06-04T02:50:39;102619.90;;;13.35;66.01
33265;BME280;31404;53.974;-1.086;2023-06-04T02:55:39;102626.67;;;10.83;71.26
33265;BME280;31404;53.974;-1.086;2023-06-04T03:00:40;102627.07;;;11.62;70.67
33265;BME280;31404;53.974;-1.086;2023-06-04T03:05:39;102626.59;;;11.35;70.99
33265;BME280;31404;53.974;-1.086;2023-06-04T03:10:39;102623.22;;;10.95;74.23
33265;BME280;31404;53.974;-1.086;2023-06-04T03:15:39;102620.73;;;11.29;73.83
33265;BME280;31404;53.974;-1.086;2023-06-04T03:20:39;102623.05;;;12.27;68.87
33265;BME280;31404;53.974;-1.086;2023-06-04T03:25:38;102622.61;;;12.82;66.96
33265;BME280;31404;53.974;-1.086;2023-06-04T03:30:40;102627.31;;;10.77;71.84
33265;BME280;31404;53.974;-1.086;2023-06-04T03:35:40;102625.27;;;10.00;74.60
33265;BME280;31404;53.974;-1.086;2023-06-04T03:40:39;102624.67;;;11.97;69.26
33265;BME280;31404;53.974;-1.086;2023-06-04T03:45:39;102622.55;;;10.19;72.11
33265;BME280;31404;53.974;-1.086;2023-06-04T03:50:39;102625.10;;;10.77;70.51
33265;BME280;31404;53.974;-1.086;2023-06-04T03:55:38;102626.40;;;11.54;68.11
33265;BME280;31404;53.974;-1.086;2023-06-04T04:00:39;102624.73;;;12.08;67.98
33265;BME280;31404;53.974;-1.086;2023-06-04T04:05:39;102627.36;;;10.12;73.04
33265;BME280;31404;53.974;-1.086;2023-06-04T04:10:39;102626.02;;;10.63;72.03
33265;BME280;31404;53.974;-1.086;2023-06-04T04:15:40;102621.26;;;11.81;68.42
33265;BME280;31404;53.974;-1.086;2023-06-04T04:20:39;102629.50;;;9.94;71.28
33265;BME280;31404;53.974;-1.086;2023-06-04T04:25:39;102631.67;;;9.58;76.01
33265;BME280;31404;53.974;-1.086;2023-06-04T04:30:39;102628.63;;;10.89;72.25
33265;BME280;31404;53.974;-1.086;2023-06-04T04:35:38;102629.19;;;11.67;69.02
33265;BME280;31404;53.974;-1.086;2023-06-04T04:40:39;102631.19;;;9.30;73.55
33265;BME280;31404;53.974;-1.086;2023-06-04T04:45:39;102633.13;;;8.60;78.32
33265;BME280;31404;53.974;-1.086;2023-06-04T04:50:39;102628.50;;;9.10;75.55
33265;BME280;31404;53.974;-1.086;2023-06-04T04:55:39;102625.99;;;9.85;74.54
33265;BME280;31404;53.974;-1.086;2023-06-04T05:00:38;102633.92;;;9.51;75.86
33265;BME280;31404;53.974;-1.086;2023-06-04T05:05:38;102640.27;;;9.43;77.78
33265;BME280;31404;53.974;-1.086;2023-06-04T05:10:53;102645.52;;;9.73;76.49
33265;BME280;31404;53.974;-1.086;2023-06-04T05:15:39;102645.06;;;8.78;79.35
33265;BME280;31404;53.974;-1.086;2023-06-04T05:20:38;102643.27;;;8.35;80.39
33265;BME280;31404;53.974;-1.086;2023-06-04T05:25:41;102647.61;;;8.28;78.53
33265;BME280;31404;53.974;-1.086;2023-06-04T05:30:39;102653.97;;;7.14;86.18
33265;BME280;31404;53.974;-1.086;2023-06-04T05:35:39;102648.63;;;9.64;78.34
33265;BME280;31404;53.974;-1.086;2023-06-04T05:40:39;102650.79;;;9.46;79.64
33265;BME280;31404;53.974;-1.086;2023-06-04T05:45:39;102649.50;;;8.72;80.30
33265;BME280;31404;53.974;-1.086;2023-06-04T05:50:39;102641.41;;;10.72;74.05
33265;BME280;31404;53.974;-1.086;2023-06-04T05:55:39;102648.12;;;11.58;70.46
33265;BME280;31404;53.974;-1.086;2023-06-04T06:00:39;102648.55;;;10.40;75.50
33265;BME280;31404;53.974;-1.086;2023-06-04T06:05:39;102650.62;;;11.11;72.96
33265;BME280;31404;53.974;-1.086;2023-06-04T06:15:38;102642.66;;;11.65;70.30
33265;BME280;31404;53.974;-1.086;2023-06-04T06:20:39;102640.86;;;10.49;75.07
33265;BME280;31404;53.974;-1.086;2023-06-04T06:25:39;102640.11;;;11.20;73.90
33265;BME280;31404;53.974;-1.086;2023-06-04T06:30:39;102641.93;;;11.05;74.07
33265;BME280;31404;53.974;-1.086;2023-06-04T06:35:38;102641.89;;;11.52;75.64
33265;BME280;31404;53.974;-1.086;2023-06-04T06:40:39;102639.82;;;12.62;70.61
33265;BME280;31404;53.974;-1.086;2023-06-04T06:45:38;102647.20;;;11.24;73.99
33265;BME280;31404;53.974;-1.086;2023-06-04T06:50:39;102642.21;;;11.30;76.28
33265;BME280;31404;53.974;-1.086;2023-06-04T06:55:38;102642.18;;;13.37;70.01
33265;BME280;31404;53.974;-1.086;2023-06-04T07:00:39;102640.75;;;12.95;72.04
33265;BME280;31404;53.974;-1.086;2023-06-04T07:05:39;102641.61;;;13.67;70.20
33265;BME280;31404;53.974;-1.086;2023-06-04T07:10:39;102638.95;;;13.99;69.96
33265;BME280;31404;53.974;-1.086;2023-06-04T07:15:38;102635.44;;;13.83;70.56
33265;BME280;31404;53.974;-1.086;2023-06-04T07:20:39;102642.64;;;10.73;84.92
33265;BME280;31404;53.974;-1.086;2023-06-04T07:25:39;102637.02;;;12.80;76.34
33265;BME280;31404;53.974;-1.086;2023-06-04T07:30:38;102637.46;;;13.75;72.31
33265;BME280;31404;53.974;-1.086;2023-06-04T07:35:41;102641.34;;;13.73;72.71
33265;BME280;31404;53.974;-1.086;2023-06-04T07:40:39;102643.28;;;11.86;76.56
33265;BME280;31404;53.974;-1.086;2023-06-04T07:45:39;102635.52;;;13.48;74.17
33265;BME280;31404;53.974;-1.086;2023-06-04T07:50:39;102643.59;;;11.19;81.98
33265;BME280;31404;53.974;-1.086;2023-06-04T07:55:39;102642.67;;;13.26;75.17
33265;BME280;31404;53.974;-1.086;2023-06-04T08:00:39;102642.30;;;13.36;74.63
33265;BME280;31404;53.974;-1.086;2023-06-04T08:05:39;102643.80;;;14.00;71.96
33265;BME280;31404;53.974;-1.086;2023-06-04T08:10:40;102646.16;;;13.13;73.61
33265;BME280;31404;53.974;-1.086;2023-06-04T08:15:39;102642.00;;;13.90;72.16
33265;BME280;31404;53.974;-1.086;2023-06-04T08:20:40;102635.96;;;14.00;70.54
33265;BME280;31404;53.974;-1.086;2023-06-04T08:25:39;102629.07;;;14.40;69.00
33265;BME280;31404;53.974;-1.086;2023-06-04T08:30:38;102635.02;;;12.64;72.32
33265;BME280;31404;53.974;-1.086;2023-06-04T08:35:39;102635.93;;;12.95;70.93
33265;BME280;31404;53.974;-1.086;2023-06-04T08:40:39;102639.67;;;12.85;71.37
33265;BME280;31404;53.974;-1.086;2023-06-04T08:45:45;102644.58;;;12.86;72.60
33265;BME280;31404;53.974;-1.086;2023-06-04T08:55:39;102639.40;;;11.70;78.22
33265;BME280;31404;53.974;-1.086;2023-06-04T09:00:38;102630.95;;;13.79;71.06
33265;BME280;31404;53.974;-1.086;2023-06-04T09:05:39;102637.64;;;14.01;70.49
33265;BME280;31404;53.974;-1.086;2023-06-04T09:10:40;102635.86;;;14.29;68.42
33265;BME280;31404;53.974;-1.086;2023-06-04T09:15:38;102631.77;;;14.53;67.58
33265;BME280;31404;53.974;-1.086;2023-06-04T09:20:39;102634.38;;;15.34;65.59
33265;BME280;31404;53.974;-1.086;2023-06-04T09:30:38;102641.90;;;12.60;75.17
33265;BME280;31404;53.974;-1.086;2023-06-04T09:35:39;102645.57;;;12.25;73.67
33265;BME280;31404;53.974;-1.086;2023-06-04T09:40:39;102649.01;;;11.61;78.78
33265;BME280;31404;53.974;-1.086;2023-06-04T09:45:38;102642.06;;;12.68;74.94
33265;BME280;31404;53.974;-1.086;2023-06-04T09:50:39;102644.14;;;13.51;72.09
33265;BME280;31404;53.974;-1.086;2023-06-04T09:55:39;102640.70;;;13.96;69.55
33265;BME280;31404;53.974;-1.086;2023-06-04T10:00:39;102638.32;;;13.73;70.09
33265;BME280;31404;53.974;-1.086;2023-06-04T10:05:39;102647.50;;;14.14;69.01
33265;BME280;31404;53.974;-1.086;2023-06-04T10:10:39;102646.76;;;14.79;66.99
33265;BME280;31404;53.974;-1.086;2023-06-04T10:15:39;102649.61;;;15.70;64.29
33265;BME280;31404;53.974;-1.086;2023-06-04T10:20:40;102651.82;;;15.56;64.57
33265;BME280;31404;53.974;-1.086;2023-06-04T10:25:39;102661.38;;;13.20;70.04
33265;BME280;31404;53.974;-1.086;2023-06-04T10:30:39;102657.21;;;14.67;66.35
33265;BME280;31404;53.974;-1.086;2023-06-04T10:35:39;102655.31;;;14.62;67.06
33265;BME280;31404;53.974;-1.086;2023-06-04T10:40:39;102661.26;;;13.53;69.29
33265;BME280;31404;53.974;-1.086;2023-06-04T10:45:39;102666.42;;;11.14;78.56
33265;BME280;31404;53.974;-1.086;2023-06-04T11:00:41;102653.22;;;14.50;68.75
33265;BME280;31404;53.974;-1.086;2023-06-04T11:05:40;102657.94;;;14.82;67.96
33265;BME280;31404;53.974;-1.086;2023-06-04T11:15:40;102658.19;;;15.93;64.99
33265;BME280;31404;53.974;-1.086;2023-06-04T11:20:44;102660.20;;;14.15;67.62
33265;BME280;31404;53.974;-1.086;2023-06-04T11:25:39;102658.12;;;14.27;70.18
33265;BME280;31404;53.974;-1.086;2023-06-04T11:30:39;102662.08;;;13.90;70.82
33265;BME280;31404;53.974;-1.086;2023-06-04T11:40:39;102667.56;;;13.73;72.28
33265;BME280;31404;53.974;-1.086;2023-06-04T11:45:40;102662.51;;;12.40;76.91
33265;BME280;31404;53.974;-1.086;2023-06-04T11:50:39;102654.08;;;14.87;67.73
33265;BME280;31404;53.974;-1.086;2023-06-04T11:55:39;102658.58;;;14.97;67.16
33265;BME280;31404;53.974;-1.086;2023-06-04T12:00:38;102659.56;;;15.09;67.68
33265;BME280;31404;53.974;-1.086;2023-06-04T12:05:39;102661.12;;;12.90;74.83
33265;BME280;31404;53.974;-1.086;2023-06-04T12:10:40;102663.48;;;14.44;69.62
33265;BME280;31404;53.974;-1.086;2023-06-04T12:20:40;102658.93;;;13.36;73.04
33265;BME280;31404;53.974;-1.086;2023-06-04T12:25:39;102665.25;;;12.97;75.26
33265;BME280;31404;53.974;-1.086;2023-06-04T12:30:39;102660.98;;;14.13;71.03
33265;BME280;31404;53.974;-1.086;2023-06-04T12:35:38;102661.56;;;15.32;68.97
33265;BME280;31404;53.974;-1.086;2023-06-04T12:40:39;102665.55;;;15.89;66.11
33265;BME280;31404;53.974;-1.086;2023-06-04T12:45:39;102662.82;;;16.24;65.04
33265;BME280;31404;53.974;-1.086;2023-06-04T12:50:40;102665.28;;;16.24;63.89
33265;BME280;31404;53.974;-1.086;2023-06-04T12:55:38;102666.55;;;16.44;64.08
33265;BME280;31404;53.974;-1.086;2023-06-04T13:00:39;102668.11;;;12.53;76.12
33265;BME280;31404;53.974;-1.086;2023-06-04T13:05:39;102668.66;;;13.20;74.46
33265;BME280;31404;53.974;-1.086;2023-06-04T13:10:39;102664.63;;;13.87;72.96
33265;BME280;31404;53.974;-1.086;2023-06-04T13:15:39;102655.59;;;16.20;64.50
33265;BME280;31404;53.974;-1.086;2023-06-04T13:20:40;102649.00;;;17.36;60.78
33265;BME280;31404;53.974;-1.086;2023-06-04T13:25:39;102655.71;;;15.24;67.20
33265;BME280;31404;53.974;-1.086;2023-06-04T13:30:39;102650.32;;;14.79;67.38
33265;BME280;31404;53.974;-1.086;2023-06-04T13:35:39;102644.42;;;15.15;67.38
33265;BME280;31404;53.974;-1.086;2023-06-04T13:40:39;102637.93;;;16.49;63.58
33265;BME280;31404;53.974;-1.086;2023-06-04T13:45:39;102639.01;;;15.40;65.90
33265;BME280;31404;53.974;-1.086;2023-06-04T13:50:40;102636.93;;;13.82;69.46
33265;BME280;31404;53.974;-1.086;2023-06-04T13:55:39;102639.31;;;14.92;66.50
33265;BME280;31404;53.974;-1.086;2023-06-04T14:00:43;102632.95;;;15.83;62.40
33265;BME280;31404;53.974;-1.086;2023-06-04T14:05:39;102633.79;;;15.32;65.85
33265;BME280;31404;53.974;-1.086;2023-06-04T14:10:39;102629.96;;;15.39;66.83
33265;BME280;31404;53.974;-1.086;2023-06-04T14:15:38;102625.33;;;14.10;69.62
33265;BME280;31404;53.974;-1.086;2023-06-04T14:20:39;102627.07;;;16.11;64.68
33265;BME280;31404;53.974;-1.086;2023-06-04T14:25:39;102630.50;;;15.68;65.77
33265;BME280;31404;53.974;-1.086;2023-06-04T14:30:39;102636.36;;;15.62;66.60
33265;BME280;31404;53.974;-1.086;2023-06-04T14:35:39;102631.63;;;16.05;64.79
33265;BME280;31404;53.974;-1.086;2023-06-04T14:40:38;102629.00;;;15.74;65.43
33265;BME280;31404;53.974;-1.086;2023-06-04T14:45:38;102627.83;;;15.86;66.20
33265;BME280;31404;53.974;-1.086;2023-06-04T14:50:38;102628.40;;;16.30;64.37
33265;BME280;31404;53.974;-1.086;2023-06-04T14:55:39;102629.81;;;16.53;63.16
33265;BME280;31404;53.974;-1.086;2023-06-04T15:00:39;102635.90;;;16.24;64.66
33265;BME280;31404;53.974;-1.086;2023-06-04T15:05:39;102632.42;;;16.38;63.08
33265;BME280;31404;53.974;-1.086;2023-06-04T15:10:39;102626.63;;;16.76;61.83
33265;BME280;31404;53.974;-1.086;2023-06-04T15:15:39;102627.50;;;17.01;61.68
33265;BME280;31404;53.974;-1.086;2023-06-04T15:20:39;102628.46;;;16.72;61.83
33265;BME280;31404;53.974;-1.086;2023-06-04T15:35:39;102634.93;;;14.87;67.52
33265;BME280;31404;53.974;-1.086;2023-06-04T15:40:37;102633.57;;;14.34;68.60
33265;BME280;31404;53.974;-1.086;2023-06-04T15:45:39;102633.52;;;14.41;68.58
33265;BME280;31404;53.974;-1.086;2023-06-04T15:50:40;102628.56;;;14.76;68.12
33265;BME280;31404;53.974;-1.086;2023-06-04T16:00:42;102624.76;;;16.76;63.32
33265;BME280;31404;53.974;-1.086;2023-06-04T16:05:39;102625.98;;;16.03;64.73
33265;BME280;31404;53.974;-1.086;2023-06-04T16:10:39;102624.71;;;15.98;65.21
33265;BME280;31404;53.974;-1.086;2023-06-04T16:15:39;102625.94;;;16.20;65.17
33265;BME280;31404;53.974;-1.086;2023-06-04T16:20:39;102625.34;;;16.40;63.83
33265;BME280;31404;53.974;-1.086;2023-06-04T16:25:40;102620.14;;;15.98;65.58
33265;BME280;31404;53.974;-1.086;2023-06-04T16:30:40;102615.62;;;16.98;62.11
33265;BME280;31404;53.974;-1.086;2023-06-04T16:35:39;102615.28;;;16.37;63.96
33265;BME280;31404;53.974;-1.086;2023-06-04T16:40:39;102615.17;;;16.98;61.68
33265;BME280;31404;53.974;-1.086;2023-06-04T16:45:40;102617.26;;;16.38;64.93
33265;BME280;31404;53.974;-1.086;2023-06-04T16:50:38;102614.30;;;14.10;71.88
33265;BME280;31404;53.974;-1.086;2023-06-04T17:00:39;102606.66;;;15.95;65.31
33265;BME280;31404;53.974;-1.086;2023-06-04T17:05:39;102601.37;;;14.33;69.96
33265;BME280;31404;53.974;-1.086;2023-06-04T17:10:39;102601.23;;;15.66;66.61
33265;BME280;31404;53.974;-1.086;2023-06-04T17:15:39;102598.68;;;15.93;65.03
33265;BME280;31404;53.974;-1.086;2023-06-04T17:20:39;102596.56;;;14.55;67.51
33265;BME280;31404;53.974;-1.086;2023-06-04T17:30:39;102601.55;;;15.32;68.31
33265;BME280;31404;53.974;-1.086;2023-06-04T17:35:39;102598.31;;;15.69;67.54
33265;BME280;31404;53.974;-1.086;2023-06-04T17:40:39;102600.41;;;14.65;68.10
33265;BME280;31404;53.974;-1.086;2023-06-04T17:45:39;102596.51;;;17.03;63.08
33265;BME280;31404;53.974;-1.086;2023-06-04T17:50:39;102602.41;;;15.16;65.76
33265;BME280;31404;53.974;-1.086;2023-06-04T17:55:39;102602.66;;;14.90;66.17
33265;BME280;31404;53.974;-1.086;2023-06-04T18:00:39;102606.89;;;13.49;72.59
33265;BME280;31404;53.974;-1.086;2023-06-04T18:10:39;102603.73;;;14.02;71.28
33265;BME280;31404;53.974;-1.086;2023-06-04T18:15:39;102600.68;;;12.46;77.09
33265;BME280;31404;53.974;-1.086;2023-06-04T18:20:40;102601.73;;;13.49;72.04
33265;BME280;31404;53.974;-1.086;2023-06-04T18:25:39;102600.86;;;12.98;75.40
33265;BME280;31404;53.974;-1.086;2023-06-04T18:30:38;102602.89;;;14.09;71.36
33265;BME280;31404;53.974;-1.086;2023-06-04T18:35:40;102602.83;;;12.03;78.45
33265;BME280;31404;53.974;-1.086;2023-06-04T18:40:39;102600.78;;;12.35;78.36
33265;BME280;31404;53.974;-1.086;2023-06-04T18:45:39;102597.32;;;14.85;70.16
33265;BME280;31404;53.974;-1.086;2023-06-04T18:50:40;102601.34;;;14.89;70.05
33265;BME280;31404;53.974;-1.086;2023-06-04T18:55:39;102610.58;;;11.52;81.56
33265;BME280;31404;53.974;-1.086;2023-06-04T19:00:43;102609.63;;;11.93;80.03
33265;BME280;31404;53.974;-1.086;2023-06-04T19:05:39;102603.20;;;12.28;78.64
33265;BME280;31404;53.974;-1.086;2023-06-04T19:10:39;102607.21;;;13.44;74.63
33265;BME280;31404;53.974;-1.086;2023-06-04T19:15:38;102605.55;;;12.41;77.80
33265;BME280;31404;53.974;-1.086;2023-06-04T19:25:43;102610.63;;;12.63;78.82
33265;BME280;31404;53.974;-1.086;2023-06-04T19:30:38;102607.27;;;13.10;74.54
33265;BME280;31404;53.974;-1.086;2023-06-04T19:35:38;102610.78;;;12.99;74.91
33265;BME280;31404;53.974;-1.086;2023-06-04T19:40:38;102621.11;;;11.69;80.51
33265;BME280;31404;53.974;-1.086;2023-06-04T19:45:38;102621.20;;;10.80;84.67
33265;BME280;31404;53.974;-1.086;2023-06-04T19:50:40;102622.88;;;10.83;86.02
33265;BME280;31404;53.974;-1.086;2023-06-04T19:55:41;102621.95;;;10.85;86.53
33265;BME280;31404;53.974;-1.086;2023-06-04T20:00:41;102620.77;;;10.52;87.88
33265;BME280;31404;53.974;-1.086;2023-06-04T20:05:39;102620.14;;;11.02;85.43
33265;BME280;31404;53.974;-1.086;2023-06-04T20:10:39;102624.94;;;11.10;83.66
33265;BME280;31404;53.974;-1.086;2023-06-04T20:15:40;102628.45;;;10.67;86.89
33265;BME280;31404;53.974;-1.086;2023-06-04T20:20:46;102631.61;;;10.46;89.40
33265;BME280;31404;53.974;-1.086;2023-06-04T20:30:39;102652.45;;;9.87;91.48
33265;BME280;31404;53.974;-1.086;2023-06-04T20:35:39;102656.01;;;9.19;95.51
33265;BME280;31404;53.974;-1.086;2023-06-04T20:40:39;102661.58;;;9.09;95.95
33265;BME280;31404;53.974;-1.086;2023-06-04T20:45:40;102663.09;;;9.89;92.14
33265;BME280;31404;53.974;-1.086;2023-06-04T20:55:43;102666.92;;;10.18;90.64
33265;BME280;31404;53.974;-1.086;2023-06-04T21:00:39;102668.55;;;10.29;89.86
33265;BME280;31404;53.974;-1.086;2023-06-04T21:05:39;102670.21;;;9.12;95.56
33265;BME280;31404;53.974;-1.086;2023-06-04T21:10:39;102677.73;;;8.78;96.87
33265;BME280;31404;53.974;-1.086;2023-06-04T21:15:33;102681.03;;;9.82;93.31
33265;BME280;31404;53.974;-1.086;2023-06-04T21:20:39;102676.14;;;8.72;98.04
33265;BME280;31404;53.974;-1.086;2023-06-04T21:25:39;102679.86;;;9.61;94.25
33265;BME280;31404;53.974;-1.086;2023-06-04T21:30:39;102684.14;;;8.48;98.23
33265;BME280;31404;53.974;-1.086;2023-06-04T21:40:39;102677.62;;;9.15;96.26
33265;BME280;31404;53.974;-1.086;2023-06-04T21:45:39;102681.85;;;9.07;97.60
33265;BME280;31404;53.974;-1.086;2023-06-04T21:50:40;102680.64;;;9.92;91.65
33265;BME280;31404;53.974;-1.086;2023-06-04T21:55:39;102673.86;;;10.75;86.73
33265;BME280;31404;53.974;-1.086;2023-06-04T22:10:39;102684.42;;;13.24;74.29
33265;BME280;31404;53.974;-1.086;2023-06-04T22:15:39;102691.74;;;11.80;80.92
33265;BME280;31404;53.974;-1.086;2023-06-04T22:20:39;102689.18;;;12.64;76.77
33265;BME280;31404;53.974;-1.086;2023-06-04T22:25:39;102685.33;;;14.20;70.84
33265;BME280;31404;53.974;-1.086;2023-06-04T22:30:39;102685.96;;;13.70;70.26
33265;BME280;31404;53.974;-1.086;2023-06-04T22:35:40;102685.30;;;14.54;68.45
33265;BME280;31404;53.974;-1.086;2023-06-04T22:50:39;102701.12;;;11.82;78.85
33265;BME280;31404;53.974;-1.086;2023-06-04T23:00:42;102704.05;;;10.77;82.78
33265;BME280;31404;53.974;-1.086;2023-06-04T23:05:39;102701.84;;;10.82;82.29
33265;BME280;31404;53.974;-1.086;2023-06-04T23:10:42;102705.46;;;10.76;83.76
33265;BME280;31404;53.974;-1.086;2023-06-04T23:15:40;102706.82;;;10.90;84.00
33265;BME280;31404;53.974;-1.086;2023-06-04T23:20:39;102713.31;;;12.67;76.93
33265;BME280;31404;53.974;-1.086;2023-06-04T23:25:40;102710.76;;;11.46;81.84
33265;BME280;31404;53.974;-1.086;2023-06-04T23:35:39;102713.66;;;12.06;77.04
33265;BME280;31404;53.974;-1.086;2023-06-04T23:50:40;102708.47;;;14.07;71.29
